Time,TemperatureF,DewpointF,PressureIn,WindDirection,WindDirectionDegrees,WindSpeedMPH,WindSpeedGustMPH,Humidity,HourlyPrecipIn,Conditions,Clouds,dailyrainin,SoftwareType,DateUTC
2013-09-11 00:01:00,76.6,56.1,29.56,WNW,298,0.0,0.0,49,0.00,,,0.00,VWS V14.01,2013-09-11 04:01:00,
2013-09-11 00:02:00,76.6,56.6,29.56,WNW,298,0.0,0.0,50,0.00,,,0.00,VWS V14.01,2013-09-11 04:02:00,
2013-09-11 00:07:00,76.5,56.5,29.59,WNW,298,0.0,0.0,50,0.00,,,0.00,VWS V14.01,2013-09-11 04:07:00,
2013-09-11 00:12:00,76.5,56.5,29.59,WNW,298,0.0,0.0,50,0.00,,,0.00,VWS V14.01,2013-09-11 04:12:00,
2013-09-11 00:17:00,76.3,56.3,29.59,WNW,298,0.0,0.0,50,0.00,,,0.00,VWS V14.01,2013-09-11 04:17:00,
2013-09-11 00:22:00,76.3,56.3,29.56,WNW,298,0.0,0.0,50,0.00,,,0.00,VWS V14.01,2013-09-11 04:22:00,
2013-09-11 00:27:00,76.1,56.1,29.56,WNW,298,0.0,0.0,50,0.00,,,0.00,VWS V14.01,2013-09-11 04:27:00,
2013-09-11 00:32:00,76.1,56.1,29.56,WNW,298,0.0,0.0,50,0.00,,,0.00,VWS V14.01,2013-09-11 04:32:00,
2013-09-11 00:38:00,75.9,56.0,29.53,WNW,298,0.0,0.0,50,0.00,,,0.00,VWS V14.01,2013-09-11 04:38:00,
2013-09-11 00:42:00,75.9,56.5,29.53,WNW,298,0.0,0.0,51,0.00,,,0.00,VWS V14.01,2013-09-11 04:42:00,
2013-09-11 00:48:00,75.9,56.5,29.53,WNW,298,0.0,0.0,51,0.00,,,0.00,VWS V14.01,2013-09-11 04:48:00,
2013-09-11 00:53:00,75.7,56.3,29.50,WNW,298,0.0,0.0,51,0.00,,,0.00,VWS V14.01,2013-09-11 04:53:00,
2013-09-11 00:58:00,75.7,56.3,29.50,WNW,298,0.0,0.0,51,0.00,,,0.00,VWS V14.01,2013-09-11 04:58:00,
2013-09-11 01:03:00,75.6,56.7,29.50,WNW,298,0.0,0.0,52,0.00,,,0.00,VWS V14.01,2013-09-11 05:03:00,
2013-09-11 01:08:00,75.6,56.7,29.47,WNW,298,0.0,0.0,52,0.00,,,0.00,VWS V14.01,2013-09-11 05:08:00,
2013-09-11 01:13:00,75.6,56.7,29.47,WNW,298,0.0,0.0,52,0.00,,,0.00,VWS V14.01,2013-09-11 05:13:00,
2013-09-11 01:18:00,75.7,56.9,29.47,WNW,298,0.0,0.0,52,0.00,,,0.00,VWS V14.01,2013-09-11 05:18:00,
2013-09-11 01:23:00,75.6,56.7,29.47,WNW,298,0.0,0.0,52,0.00,,,0.00,VWS V14.01,2013-09-11 05:23:00,
2013-09-11 01:28:00,75.4,57.1,29.47,WNW,298,0.0,0.0,53,0.00,,,0.00,VWS V14.01,2013-09-11 05:28:00,
2013-09-11 01:33:00,75.4,57.1,29.47,WNW,298,0.0,0.0,53,0.00,,,0.00,VWS V14.01,2013-09-11 05:33:00,
2013-09-11 01:38:00,75.2,56.9,29.50,WNW,298,0.0,0.0,53,0.00,,,0.00,VWS V14.01,2013-09-11 05:38:00,
2013-09-11 01:43:00,75.2,56.9,29.50,WNW,298,0.0,0.0,53,0.00,,,0.00,VWS V14.01,2013-09-11 05:43:00,
2013-09-11 01:48:00,75.2,56.9,29.50,WNW,298,0.0,0.0,53,0.00,,,0.00,VWS V14.01,2013-09-11 05:48:00,
2013-09-11 01:53:00,75.2,56.9,29.53,WNW,298,0.0,0.0,53,0.00,,,0.00,VWS V14.01,2013-09-11 05:53:00,
2013-09-11 01:58:00,75.2,56.9,29.53,WNW,298,0.0,0.0,53,0.00,,,0.00,VWS V14.01,2013-09-11 05:58:00,
2013-09-11 02:03:00,75.2,56.9,29.53,WNW,298,0.0,0.0,53,0.00,,,0.00,VWS V14.01,2013-09-11 06:03:00,
2013-09-11 02:08:00,75.2,56.9,29.50,West,270,0.0,0.0,53,0.00,,,0.00,VWS V14.01,2013-09-11 06:08:00,
2013-09-11 02:13:00,75.2,56.9,29.50,NW,321,0.0,0.0,53,0.00,,,0.00,VWS V14.01,2013-09-11 06:13:00,
2013-09-11 02:18:00,75.4,57.6,29.50,West,267,2.7,2.7,54,0.00,,,0.00,VWS V14.01,2013-09-11 06:18:00,
2013-09-11 02:23:00,75.4,57.6,29.53,NNW,339,0.0,0.0,54,0.00,,,0.00,VWS V14.01,2013-09-11 06:23:00,
2013-09-11 02:28:00,75.4,57.6,29.53,NNE,19,0.0,3.1,54,0.00,,,0.00,VWS V14.01,2013-09-11 06:28:00,
2013-09-11 02:33:00,75.4,57.6,29.53,NNE,15,0.0,2.2,54,0.00,,,0.00,VWS V14.01,2013-09-11 06:33:00,
2013-09-11 02:38:00,75.4,58.1,29.53,NNW,337,0.0,0.0,55,0.00,,,0.00,VWS V14.01,2013-09-11 06:38:00,
2013-09-11 02:43:00,75.4,58.1,29.53,NNW,340,0.0,2.7,55,0.00,,,0.00,VWS V14.01,2013-09-11 06:43:00,
2013-09-11 02:48:00,75.4,58.1,29.53,NNW,334,0.0,4.0,55,0.00,,,0.00,VWS V14.01,2013-09-11 06:48:00,
2013-09-11 02:53:00,75.4,58.1,29.50,North,350,3.1,3.1,55,0.00,,,0.00,VWS V14.01,2013-09-11 06:53:00,
2013-09-11 02:58:00,75.6,58.3,29.50,NE,42,0.0,2.2,55,0.00,,,0.00,VWS V14.01,2013-09-11 06:58:00,
2013-09-11 03:03:00,75.4,58.1,29.50,NE,42,0.0,0.0,55,0.00,,,0.00,VWS V14.01,2013-09-11 07:03:00,
2013-09-11 03:08:00,75.4,58.1,29.50,North,357,0.0,0.0,55,0.00,,,0.00,VWS V14.01,2013-09-11 07:08:00,
2013-09-11 03:13:00,75.2,57.9,29.50,NNE,24,0.0,0.0,55,0.00,,,0.00,VWS V14.01,2013-09-11 07:13:00,
2013-09-11 03:18:00,75.2,57.9,29.50,NE,36,0.0,0.0,55,0.00,,,0.00,VWS V14.01,2013-09-11 07:18:00,
2013-09-11 03:23:00,75.2,57.9,29.47,NW,317,0.0,0.0,55,0.00,,,0.00,VWS V14.01,2013-09-11 07:23:00,